sensor_id;sensor_type;location;lat;lon;timestamp;P1;durP1;ratioP1;P2;durP2;ratioP2
65835;SDS011;52595;51.608;7.216;2022-12-29T00:01:30;1.77;;;1.25;;
65835;SDS011;52595;51.608;7.216;2022-12-29T00:03:56;1.13;;;1.02;;
65835;SDS011;52595;51.608;7.216;2022-12-29T00:06:21;1.10;;;1.00;;
65835;SDS011;52595;51.608;7.216;2022-12-29T00:08:47;2.67;;;1.20;;
65835;SDS011;52595;51.608;7.216;2022-12-29T00:11:17;1.85;;;1.10;;
65835;SDS011;52595;51.608;7.216;2022-12-29T00:13:44;2.78;;;1.27;;
65835;SDS011;52595;51.608;7.216;2022-12-29T00:16:28;3.13;;;1.33;;
65835;SDS011;52595;51.608;7.216;2022-12-29T00:18:54;3.55;;;2.03;;
65835;SDS011;52595;51.608;7.216;2022-12-29T00:21:20;1.60;;;1.30;;
65835;SDS011;52595;51.608;7.216;2022-12-29T00:24:05;1.17;;;1.02;;
65835;SDS011;52595;51.608;7.216;2022-12-29T00:26:39;3.03;;;1.30;;
65835;SDS011;52595;51.608;7.216;2022-12-29T00:29:23;1.60;;;1.40;;
65835;SDS011;52595;51.608;7.216;2022-12-29T00:32:08;2.33;;;1.30;;
65835;SDS011;52595;51.608;7.216;2022-12-29T00:34:53;1.10;;;1.00;;
65835;SDS011;52595;51.608;7.216;2022-12-29T00:37:40;2.50;;;1.40;;
65835;SDS011;52595;51.608;7.216;2022-12-29T00:40:26;1.27;;;1.17;;
65835;SDS011;52595;51.608;7.216;2022-12-29T00:43:11;1.88;;;1.20;;
65835;SDS011;52595;51.608;7.216;2022-12-29T00:45:55;2.08;;;1.45;;
65835;SDS011;52595;51.608;7.216;2022-12-29T00:48:20;2.38;;;1.40;;
65835;SDS011;52595;51.608;7.216;2022-12-29T00:51:04;2.47;;;1.48;;
65835;SDS011;52595;51.608;7.216;2022-12-29T00:53:30;1.90;;;1.40;;
65835;SDS011;52595;51.608;7.216;2022-12-29T00:55:55;1.95;;;1.50;;
65835;SDS011;52595;51.608;7.216;2022-12-29T00:58:20;3.33;;;1.45;;
65835;SDS011;52595;51.608;7.216;2022-12-29T01:00:46;2.75;;;1.63;;
65835;SDS011;52595;51.608;7.216;2022-12-29T01:03:11;1.60;;;1.50;;
65835;SDS011;52595;51.608;7.216;2022-12-29T01:05:37;1.65;;;1.50;;
65835;SDS011;52595;51.608;7.216;2022-12-29T01:08:02;3.28;;;1.50;;
65835;SDS011;52595;51.608;7.216;2022-12-29T01:10:28;4.80;;;1.48;;
65835;SDS011;52595;51.608;7.216;2022-12-29T01:12:53;1.40;;;1.10;;
65835;SDS011;52595;51.608;7.216;2022-12-29T01:15:19;1.70;;;1.20;;
65835;SDS011;52595;51.608;7.216;2022-12-29T01:17:45;1.83;;;1.40;;
65835;SDS011;52595;51.608;7.216;2022-12-29T01:20:11;1.40;;;1.10;;
65835;SDS011;52595;51.608;7.216;2022-12-29T01:22:37;1.55;;;1.23;;
65835;SDS011;52595;51.608;7.216;2022-12-29T01:25:04;2.03;;;1.50;;
65835;SDS011;52595;51.608;7.216;2022-12-29T01:27:30;1.77;;;1.50;;
65835;SDS011;52595;51.608;7.216;2022-12-29T01:29:55;1.52;;;1.30;;
65835;SDS011;52595;51.608;7.216;2022-12-29T01:32:21;1.30;;;1.20;;
65835;SDS011;52595;51.608;7.216;2022-12-29T01:34:46;1.48;;;1.00;;
65835;SDS011;52595;51.608;7.216;2022-12-29T01:37:12;1.45;;;1.02;;
65835;SDS011;52595;51.608;7.216;2022-12-29T01:39:37;1.20;;;1.10;;
65835;SDS011;52595;51.608;7.216;2022-12-29T01:42:02;1.00;;;0.90;;
65835;SDS011;52595;51.608;7.216;2022-12-29T01:44:47;1.42;;;1.00;;
65835;SDS011;52595;51.608;7.216;2022-12-29T01:47:18;1.48;;;1.10;;
65835;SDS011;52595;51.608;7.216;2022-12-29T01:49:49;0.95;;;0.90;;
65835;SDS011;52595;51.608;7.216;2022-12-29T01:52:17;1.45;;;1.00;;
65835;SDS011;52595;51.608;7.216;2022-12-29T01:54:43;1.52;;;1.00;;
65835;SDS011;52595;51.608;7.216;2022-12-29T01:57:16;1.83;;;1.00;;
65835;SDS011;52595;51.608;7.216;2022-12-29T01:59:48;1.10;;;1.00;;
65835;SDS011;52595;51.608;7.216;2022-12-29T02:02:23;2.83;;;0.85;;
65835;SDS011;52595;51.608;7.216;2022-12-29T02:04:49;1.17;;;0.90;;
65835;SDS011;52595;51.608;7.216;2022-12-29T02:07:19;2.08;;;0.90;;
65835;SDS011;52595;51.608;7.216;2022-12-29T02:09:47;1.17;;;0.68;;
65835;SDS011;52595;51.608;7.216;2022-12-29T02:12:15;0.70;;;0.70;;
65835;SDS011;52595;51.608;7.216;2022-12-29T02:14:43;0.80;;;0.80;;
65835;SDS011;52595;51.608;7.216;2022-12-29T02:17:22;0.80;;;0.70;;
65835;SDS011;52595;51.608;7.216;2022-12-29T02:22:45;1.08;;;0.80;;
65835;SDS011;52595;51.608;7.216;2022-12-29T02:28:33;0.80;;;0.80;;
65835;SDS011;52595;51.608;7.216;2022-12-29T02:34:16;0.60;;;0.60;;
65835;SDS011;52595;51.608;7.216;2022-12-29T02:37:12;2.72;;;0.80;;
65835;SDS011;52595;51.608;7.216;2022-12-29T02:42:36;0.70;;;0.70;;
65835;SDS011;52595;51.608;7.216;2022-12-29T02:48:01;2.15;;;0.82;;
65835;SDS011;52595;51.608;7.216;2022-12-29T02:50:31;2.00;;;0.80;;
65835;SDS011;52595;51.608;7.216;2022-12-29T02:53:02;1.80;;;0.85;;
65835;SDS011;52595;51.608;7.216;2022-12-29T02:55:31;2.38;;;1.02;;
65835;SDS011;52595;51.608;7.216;2022-12-29T03:00:46;1.33;;;0.60;;
65835;SDS011;52595;51.608;7.216;2022-12-29T03:06:27;2.30;;;0.90;;
65835;SDS011;52595;51.608;7.216;2022-12-29T03:11:58;1.42;;;0.75;;
65835;SDS011;52595;51.608;7.216;2022-12-29T03:20:38;1.27;;;1.00;;
65835;SDS011;52595;51.608;7.216;2022-12-29T03:23:24;0.93;;;0.70;;
65835;SDS011;52595;51.608;7.216;2022-12-29T03:25:51;1.42;;;0.95;;
65835;SDS011;52595;51.608;7.216;2022-12-29T03:28:22;1.42;;;0.90;;
65835;SDS011;52595;51.608;7.216;2022-12-29T03:30:51;5.85;;;1.08;;
65835;SDS011;52595;51.608;7.216;2022-12-29T03:33:18;2.90;;;1.05;;
65835;SDS011;52595;51.608;7.216;2022-12-29T03:35:48;1.00;;;0.80;;
65835;SDS011;52595;51.608;7.216;2022-12-29T03:38:17;3.83;;;0.80;;
65835;SDS011;52595;51.608;7.216;2022-12-29T03:40:52;0.98;;;0.80;;
65835;SDS011;52595;51.608;7.216;2022-12-29T03:43:21;2.22;;;0.95;;
65835;SDS011;52595;51.608;7.216;2022-12-29T03:45:47;1.33;;;0.90;;
65835;SDS011;52595;51.608;7.216;2022-12-29T03:48:12;1.77;;;0.90;;
65835;SDS011;52595;51.608;7.216;2022-12-29T03:50:37;2.13;;;0.82;;
65835;SDS011;52595;51.608;7.216;2022-12-29T03:53:03;2.28;;;1.00;;
65835;SDS011;52595;51.608;7.216;2022-12-29T03:55:28;3.00;;;1.00;;
65835;SDS011;52595;51.608;7.216;2022-12-29T03:57:54;1.50;;;0.80;;
65835;SDS011;52595;51.608;7.216;2022-12-29T04:00:19;1.20;;;0.80;;
65835;SDS011;52595;51.608;7.216;2022-12-29T04:02:44;1.42;;;0.95;;
65835;SDS011;52595;51.608;7.216;2022-12-29T04:05:10;1.52;;;1.00;;
65835;SDS011;52595;51.608;7.216;2022-12-29T04:07:35;2.25;;;0.82;;
65835;SDS011;52595;51.608;7.216;2022-12-29T04:10:01;0.90;;;0.80;;
65835;SDS011;52595;51.608;7.216;2022-12-29T04:12:26;2.85;;;1.00;;
65835;SDS011;52595;51.608;7.216;2022-12-29T04:14:51;1.70;;;1.10;;
65835;SDS011;52595;51.608;7.216;2022-12-29T04:17:17;2.88;;;1.00;;
65835;SDS011;52595;51.608;7.216;2022-12-29T04:19:42;1.67;;;0.70;;
65835;SDS011;52595;51.608;7.216;2022-12-29T04:22:08;1.13;;;0.90;;
65835;SDS011;52595;51.608;7.216;2022-12-29T04:24:33;1.20;;;0.80;;
65835;SDS011;52595;51.608;7.216;2022-12-29T04:26:58;3.55;;;0.98;;
65835;SDS011;52595;51.608;7.216;2022-12-29T04:29:24;1.73;;;1.00;;
65835;SDS011;52595;51.608;7.216;2022-12-29T04:31:49;1.20;;;0.80;;
65835;SDS011;52595;51.608;7.216;2022-12-29T04:34:14;1.45;;;1.00;;
65835;SDS011;52595;51.608;7.216;2022-12-29T04:36:40;2.50;;;1.08;;
65835;SDS011;52595;51.608;7.216;2022-12-29T04:39:05;1.77;;;1.10;;
65835;SDS011;52595;51.608;7.216;2022-12-29T04:41:31;3.78;;;0.90;;
65835;SDS011;52595;51.608;7.216;2022-12-29T04:43:56;1.17;;;1.08;;
65835;SDS011;52595;51.608;7.216;2022-12-29T04:46:22;0.98;;;0.80;;
65835;SDS011;52595;51.608;7.216;2022-12-29T04:48:47;2.50;;;0.80;;
65835;SDS011;52595;51.608;7.216;2022-12-29T04:51:13;0.75;;;0.75;;
65835;SDS011;52595;51.608;7.216;2022-12-29T04:53:38;0.93;;;0.85;;
65835;SDS011;52595;51.608;7.216;2022-12-29T04:56:04;2.10;;;0.80;;
65835;SDS011;52595;51.608;7.216;2022-12-29T04:58:30;0.85;;;0.73;;
65835;SDS011;52595;51.608;7.216;2022-12-29T05:00:55;1.30;;;0.73;;
65835;SDS011;52595;51.608;7.216;2022-12-29T05:03:21;1.08;;;0.70;;
65835;SDS011;52595;51.608;7.216;2022-12-29T05:05:46;0.60;;;0.60;;
65835;SDS011;52595;51.608;7.216;2022-12-29T05:08:11;0.63;;;0.63;;
65835;SDS011;52595;51.608;7.216;2022-12-29T05:10:37;1.45;;;0.75;;
65835;SDS011;52595;51.608;7.216;2022-12-29T05:13:02;1.42;;;0.55;;
65835;SDS011;52595;51.608;7.216;2022-12-29T05:15:28;0.80;;;0.70;;
65835;SDS011;52595;51.608;7.216;2022-12-29T05:17:53;1.58;;;0.80;;
65835;SDS011;52595;51.608;7.216;2022-12-29T05:20:19;1.02;;;0.65;;
65835;SDS011;52595;51.608;7.216;2022-12-29T05:22:44;2.38;;;0.90;;
65835;SDS011;52595;51.608;7.216;2022-12-29T05:25:10;0.70;;;0.65;;
65835;SDS011;52595;51.608;7.216;2022-12-29T05:27:35;1.95;;;0.63;;
65835;SDS011;52595;51.608;7.216;2022-12-29T05:30:01;0.95;;;0.50;;
65835;SDS011;52595;51.608;7.216;2022-12-29T05:32:26;0.93;;;0.80;;
65835;SDS011;52595;51.608;7.216;2022-12-29T05:34:52;0.60;;;0.60;;
65835;SDS011;52595;51.608;7.216;2022-12-29T05:37:17;1.67;;;0.70;;
65835;SDS011;52595;51.608;7.216;2022-12-29T05:39:43;2.28;;;1.02;;
65835;SDS011;52595;51.608;7.216;2022-12-29T05:42:08;2.75;;;1.20;;
65835;SDS011;52595;51.608;7.216;2022-12-29T05:44:33;2.22;;;1.60;;
65835;SDS011;52595;51.608;7.216;2022-12-29T05:46:59;2.85;;;2.03;;
65835;SDS011;52595;51.608;7.216;2022-12-29T05:49:27;2.63;;;1.90;;
65835;SDS011;52595;51.608;7.216;2022-12-29T05:51:53;2.85;;;2.03;;
65835;SDS011;52595;51.608;7.216;2022-12-29T05:54:18;2.67;;;2.08;;
65835;SDS011;52595;51.608;7.216;2022-12-29T05:56:44;3.92;;;2.40;;
65835;SDS011;52595;51.608;7.216;2022-12-29T05:59:09;3.45;;;2.13;;
65835;SDS011;52595;51.608;7.216;2022-12-29T06:01:34;1.67;;;1.35;;
65835;SDS011;52595;51.608;7.216;2022-12-29T06:04:00;1.63;;;1.35;;
65835;SDS011;52595;51.608;7.216;2022-12-29T06:06:25;0.98;;;0.88;;
65835;SDS011;52595;51.608;7.216;2022-12-29T06:08:51;1.80;;;0.90;;
65835;SDS011;52595;51.608;7.216;2022-12-29T06:11:16;1.45;;;0.75;;
65835;SDS011;52595;51.608;7.216;2022-12-29T06:13:41;2.85;;;0.90;;
65835;SDS011;52595;51.608;7.216;2022-12-29T06:16:07;1.33;;;0.60;;
65835;SDS011;52595;51.608;7.216;2022-12-29T06:18:33;2.70;;;0.70;;
65835;SDS011;52595;51.608;7.216;2022-12-29T06:21:00;2.50;;;0.70;;
65835;SDS011;52595;51.608;7.216;2022-12-29T06:23:26;1.38;;;0.68;;
65835;SDS011;52595;51.608;7.216;2022-12-29T06:25:52;3.17;;;0.90;;
65835;SDS011;52595;51.608;7.216;2022-12-29T06:28:17;2.90;;;1.00;;
65835;SDS011;52595;51.608;7.216;2022-12-29T06:30:43;2.30;;;0.75;;
65835;SDS011;52595;51.608;7.216;2022-12-29T06:33:10;1.95;;;0.90;;
65835;SDS011;52595;51.608;7.216;2022-12-29T06:35:36;1.17;;;0.80;;
65835;SDS011;52595;51.608;7.216;2022-12-29T06:38:01;2.97;;;0.80;;
65835;SDS011;52595;51.608;7.216;2022-12-29T06:40:27;1.52;;;1.00;;
65835;SDS011;52595;51.608;7.216;2022-12-29T06:42:52;1.35;;;0.70;;
65835;SDS011;52595;51.608;7.216;2022-12-29T06:45:17;2.15;;;0.90;;
65835;SDS011;52595;51.608;7.216;2022-12-29T06:47:43;3.30;;;1.20;;
65835;SDS011;52595;51.608;7.216;2022-12-29T06:50:08;1.67;;;0.90;;
65835;SDS011;52595;51.608;7.216;2022-12-29T06:52:34;3.30;;;1.10;;
65835;SDS011;52595;51.608;7.216;2022-12-29T06:54:59;1.20;;;0.90;;
65835;SDS011;52595;51.608;7.216;2022-12-29T06:57:24;3.08;;;1.02;;
65835;SDS011;52595;51.608;7.216;2022-12-29T06:59:51;4.00;;;1.40;;
65835;SDS011;52595;51.608;7.216;2022-12-29T07:02:17;4.80;;;1.30;;
65835;SDS011;52595;51.608;7.216;2022-12-29T07:04:44;2.08;;;0.90;;
65835;SDS011;52595;51.608;7.216;2022-12-29T07:07:10;2.28;;;1.10;;
65835;SDS011;52595;51.608;7.216;2022-12-29T07:09:35;1.33;;;0.90;;
65835;SDS011;52595;51.608;7.216;2022-12-29T07:12:00;5.88;;;1.58;;
65835;SDS011;52595;51.608;7.216;2022-12-29T07:14:26;2.30;;;0.80;;
65835;SDS011;52595;51.608;7.216;2022-12-29T07:16:51;3.88;;;1.17;;
65835;SDS011;52595;51.608;7.216;2022-12-29T07:19:17;0.88;;;0.82;;
65835;SDS011;52595;51.608;7.216;2022-12-29T07:21:42;4.20;;;1.10;;
65835;SDS011;52595;51.608;7.216;2022-12-29T07:24:08;1.98;;;1.02;;
65835;SDS011;52595;51.608;7.216;2022-12-29T07:26:34;2.35;;;1.30;;
65835;SDS011;52595;51.608;7.216;2022-12-29T07:29:01;3.47;;;1.30;;
65835;SDS011;52595;51.608;7.216;2022-12-29T07:31:27;2.95;;;1.00;;
65835;SDS011;52595;51.608;7.216;2022-12-29T07:33:52;3.20;;;1.30;;
65835;SDS011;52595;51.608;7.216;2022-12-29T07:36:18;2.53;;;1.38;;
65835;SDS011;52595;51.608;7.216;2022-12-29T07:38:43;1.83;;;1.20;;
65835;SDS011;52595;51.608;7.216;2022-12-29T07:41:09;1.33;;;0.90;;
65835;SDS011;52595;51.608;7.216;2022-12-29T07:43:34;2.92;;;1.10;;
65835;SDS011;52595;51.608;7.216;2022-12-29T07:46:00;3.03;;;0.98;;
65835;SDS011;52595;51.608;7.216;2022-12-29T07:48:25;2.40;;;1.23;;
65835;SDS011;52595;51.608;7.216;2022-12-29T07:50:51;4.93;;;1.25;;
65835;SDS011;52595;51.608;7.216;2022-12-29T07:53:17;1.45;;;0.88;;
65835;SDS011;52595;51.608;7.216;2022-12-29T07:55:43;2.65;;;1.13;;
65835;SDS011;52595;51.608;7.216;2022-12-29T07:58:08;3.33;;;1.33;;
65835;SDS011;52595;51.608;7.216;2022-12-29T08:00:34;5.30;;;1.48;;
65835;SDS011;52595;51.608;7.216;2022-12-29T08:02:59;3.25;;;1.13;;
65835;SDS011;52595;51.608;7.216;2022-12-29T08:05:25;2.03;;;1.10;;
65835;SDS011;52595;51.608;7.216;2022-12-29T08:07:51;6.43;;;1.20;;
65835;SDS011;52595;51.608;7.216;2022-12-29T08:10:16;4.57;;;1.48;;
65835;SDS011;52595;51.608;7.216;2022-12-29T08:12:42;3.88;;;1.02;;
65835;SDS011;52595;51.608;7.216;2022-12-29T08:15:08;2.47;;;0.75;;
65835;SDS011;52595;51.608;7.216;2022-12-29T08:17:36;1.52;;;0.98;;
65835;SDS011;52595;51.608;7.216;2022-12-29T08:20:02;4.40;;;1.00;;
65835;SDS011;52595;51.608;7.216;2022-12-29T08:22:27;2.13;;;1.00;;
65835;SDS011;52595;51.608;7.216;2022-12-29T08:24:53;2.50;;;1.08;;
65835;SDS011;52595;51.608;7.216;2022-12-29T08:27:18;2.40;;;1.30;;
65835;SDS011;52595;51.608;7.216;2022-12-29T08:29:44;3.22;;;1.13;;
65835;SDS011;52595;51.608;7.216;2022-12-29T08:32:10;3.50;;;1.30;;
65835;SDS011;52595;51.608;7.216;2022-12-29T08:34:36;5.22;;;1.30;;
65835;SDS011;52595;51.608;7.216;2022-12-29T08:37:01;4.25;;;1.17;;
65835;SDS011;52595;51.608;7.216;2022-12-29T08:39:26;3.15;;;1.10;;
65835;SDS011;52595;51.608;7.216;2022-12-29T08:41:52;3.47;;;1.23;;
65835;SDS011;52595;51.608;7.216;2022-12-29T08:44:18;6.20;;;1.00;;
65835;SDS011;52595;51.608;7.216;2022-12-29T08:46:43;4.68;;;1.17;;
65835;SDS011;52595;51.608;7.216;2022-12-29T08:49:09;3.65;;;1.20;;
65835;SDS011;52595;51.608;7.216;2022-12-29T08:51:34;4.80;;;1.45;;
65835;SDS011;52595;51.608;7.216;2022-12-29T08:54:00;4.28;;;1.40;;
65835;SDS011;52595;51.608;7.216;2022-12-29T08:56:25;4.35;;;1.30;;
65835;SDS011;52595;51.608;7.216;2022-12-29T08:58:51;4.85;;;1.33;;
65835;SDS011;52595;51.608;7.216;2022-12-29T09:01:17;6.03;;;1.30;;
65835;SDS011;52595;51.608;7.216;2022-12-29T09:03:43;5.85;;;1.35;;
65835;SDS011;52595;51.608;7.216;2022-12-29T09:06:08;9.82;;;1.40;;
65835;SDS011;52595;51.608;7.216;2022-12-29T09:08:33;7.07;;;1.42;;
65835;SDS011;52595;51.608;7.216;2022-12-29T09:11:09;4.55;;;1.10;;
65835;SDS011;52595;51.608;7.216;2022-12-29T09:13:37;2.47;;;1.05;;
65835;SDS011;52595;51.608;7.216;2022-12-29T09:16:03;3.92;;;1.30;;
65835;SDS011;52595;51.608;7.216;2022-12-29T09:18:29;4.57;;;1.30;;
65835;SDS011;52595;51.608;7.216;2022-12-29T09:20:58;3.35;;;0.95;;
65835;SDS011;52595;51.608;7.216;2022-12-29T09:23:25;3.72;;;1.27;;
65835;SDS011;52595;51.608;7.216;2022-12-29T09:25:51;2.88;;;1.27;;
65835;SDS011;52595;51.608;7.216;2022-12-29T09:28:17;1.80;;;0.90;;
65835;SDS011;52595;51.608;7.216;2022-12-29T09:30:43;4.72;;;1.05;;
65835;SDS011;52595;51.608;7.216;2022-12-29T09:33:08;5.70;;;1.38;;
65835;SDS011;52595;51.608;7.216;2022-12-29T09:35:33;3.38;;;1.13;;
65835;SDS011;52595;51.608;7.216;2022-12-29T09:37:59;7.03;;;1.30;;
65835;SDS011;52595;51.608;7.216;2022-12-29T09:40:26;5.35;;;1.25;;
65835;SDS011;52595;51.608;7.216;2022-12-29T09:43:05;5.13;;;1.15;;
65835;SDS011;52595;51.608;7.216;2022-12-29T09:45:41;3.70;;;1.17;;
65835;SDS011;52595;51.608;7.216;2022-12-29T09:48:31;6.25;;;1.45;;
65835;SDS011;52595;51.608;7.216;2022-12-29T09:50:59;3.95;;;1.20;;
65835;SDS011;52595;51.608;7.216;2022-12-29T09:53:44;3.85;;;1.02;;
65835;SDS011;52595;51.608;7.216;2022-12-29T09:56:18;3.42;;;1.55;;
65835;SDS011;52595;51.608;7.216;2022-12-29T09:58:57;5.07;;;1.42;;
65835;SDS011;52595;51.608;7.216;2022-12-29T10:14:58;4.95;;;1.27;;
65835;SDS011;52595;51.608;7.216;2022-12-29T10:23:00;3.92;;;1.20;;
65835;SDS011;52595;51.608;7.216;2022-12-29T10:25:29;7.90;;;1.38;;
65835;SDS011;52595;51.608;7.216;2022-12-29T10:27:59;4.05;;;1.02;;
65835;SDS011;52595;51.608;7.216;2022-12-29T10:30:28;6.35;;;1.20;;
65835;SDS011;52595;51.608;7.216;2022-12-29T10:32:55;3.78;;;1.17;;
65835;SDS011;52595;51.608;7.216;2022-12-29T10:35:24;3.13;;;1.00;;
65835;SDS011;52595;51.608;7.216;2022-12-29T10:46:11;6.20;;;1.30;;
65835;SDS011;52595;51.608;7.216;2022-12-29T10:48:39;2.80;;;0.73;;
65835;SDS011;52595;51.608;7.216;2022-12-29T10:51:05;7.82;;;1.25;;
65835;SDS011;52595;51.608;7.216;2022-12-29T10:53:38;2.80;;;1.02;;
65835;SDS011;52595;51.608;7.216;2022-12-29T10:57:10;4.55;;;1.00;;
65835;SDS011;52595;51.608;7.216;2022-12-29T10:59:22;5.22;;;1.25;;
65835;SDS011;52595;51.608;7.216;2022-12-29T11:07:16;2.50;;;0.88;;
65835;SDS011;52595;51.608;7.216;2022-12-29T11:09:44;5.30;;;1.25;;
65835;SDS011;52595;51.608;7.216;2022-12-29T11:12:20;4.10;;;1.40;;
65835;SDS011;52595;51.608;7.216;2022-12-29T11:15:00;3.00;;;1.20;;
65835;SDS011;52595;51.608;7.216;2022-12-29T11:17:45;6.15;;;1.30;;
65835;SDS011;52595;51.608;7.216;2022-12-29T11:20:31;4.32;;;1.10;;
65835;SDS011;52595;51.608;7.216;2022-12-29T11:23:03;1.83;;;0.95;;
65835;SDS011;52595;51.608;7.216;2022-12-29T11:25:30;4.57;;;1.00;;
65835;SDS011;52595;51.608;7.216;2022-12-29T11:28:12;5.68;;;1.63;;
65835;SDS011;52595;51.608;7.216;2022-12-29T11:30:39;5.32;;;1.23;;
65835;SDS011;52595;51.608;7.216;2022-12-29T11:33:05;6.75;;;1.30;;
65835;SDS011;52595;51.608;7.216;2022-12-29T11:37:57;7.93;;;1.40;;
65835;SDS011;52595;51.608;7.216;2022-12-29T11:40:23;7.07;;;1.15;;
65835;SDS011;52595;51.608;7.216;2022-12-29T11:43:02;6.40;;;1.40;;
65835;SDS011;52595;51.608;7.216;2022-12-29T11:45:33;3.72;;;1.13;;
65835;SDS011;52595;51.608;7.216;2022-12-29T11:48:07;2.78;;;0.90;;
65835;SDS011;52595;51.608;7.216;2022-12-29T11:50:35;6.38;;;1.30;;
65835;SDS011;52595;51.608;7.216;2022-12-29T11:53:15;4.72;;;1.40;;
65835;SDS011;52595;51.608;7.216;2022-12-29T11:55:56;3.78;;;1.20;;
65835;SDS011;52595;51.608;7.216;2022-12-29T11:58:34;7.18;;;1.50;;
65835;SDS011;52595;51.608;7.216;2022-12-29T12:01:26;5.75;;;1.55;;
65835;SDS011;52595;51.608;7.216;2022-12-29T12:04:07;9.73;;;1.48;;
65835;SDS011;52595;51.608;7.216;2022-12-29T12:06:42;3.55;;;1.25;;
65835;SDS011;52595;51.608;7.216;2022-12-29T12:09:46;3.28;;;1.00;;
65835;SDS011;52595;51.608;7.216;2022-12-29T12:12:23;6.00;;;1.13;;
65835;SDS011;52595;51.608;7.216;2022-12-29T12:14:54;2.67;;;1.10;;
65835;SDS011;52595;51.608;7.216;2022-12-29T12:17:27;3.70;;;1.23;;
65835;SDS011;52595;51.608;7.216;2022-12-29T12:20:16;4.35;;;1.30;;
65835;SDS011;52595;51.608;7.216;2022-12-29T12:22:45;3.28;;;1.40;;
65835;SDS011;52595;51.608;7.216;2022-12-29T12:26:09;6.32;;;1.30;;
65835;SDS011;52595;51.608;7.216;2022-12-29T12:34:17;4.93;;;1.35;;
65835;SDS011;52595;51.608;7.216;2022-12-29T12:37:14;6.22;;;1.70;;
65835;SDS011;52595;51.608;7.216;2022-12-29T12:48:09;2.92;;;0.98;;
65835;SDS011;52595;51.608;7.216;2022-12-29T12:50:55;8.75;;;1.50;;
65835;SDS011;52595;51.608;7.216;2022-12-29T12:59:16;7.25;;;1.30;;
65835;SDS011;52595;51.608;7.216;2022-12-29T13:01:50;4.65;;;1.40;;
65835;SDS011;52595;51.608;7.216;2022-12-29T13:04:34;3.67;;;1.20;;
65835;SDS011;52595;51.608;7.216;2022-12-29T13:07:21;3.67;;;1.15;;
65835;SDS011;52595;51.608;7.216;2022-12-29T13:12:34;3.65;;;1.30;;
65835;SDS011;52595;51.608;7.216;2022-12-29T13:15:48;8.68;;;1.30;;
65835;SDS011;52595;51.608;7.216;2022-12-29T13:18:13;6.63;;;1.63;;
65835;SDS011;52595;51.608;7.216;2022-12-29T13:20:48;6.55;;;1.45;;
65835;SDS011;52595;51.608;7.216;2022-12-29T13:23:25;5.38;;;1.30;;
65835;SDS011;52595;51.608;7.216;2022-12-29T13:25:58;2.33;;;1.15;;
65835;SDS011;52595;51.608;7.216;2022-12-29T13:33:49;5.88;;;1.20;;
65835;SDS011;52595;51.608;7.216;2022-12-29T13:36:28;2.63;;;1.00;;
65835;SDS011;52595;51.608;7.216;2022-12-29T13:39:13;5.97;;;1.60;;
65835;SDS011;52595;51.608;7.216;2022-12-29T13:41:44;4.30;;;1.08;;
65835;SDS011;52595;51.608;7.216;2022-12-29T13:44:18;7.80;;;1.40;;
65835;SDS011;52595;51.608;7.216;2022-12-29T13:46:48;6.93;;;1.50;;
65835;SDS011;52595;51.608;7.216;2022-12-29T13:52:34;3.53;;;1.15;;
65835;SDS011;52595;51.608;7.216;2022-12-29T13:55:27;5.40;;;1.20;;
65835;SDS011;52595;51.608;7.216;2022-12-29T13:58:04;7.63;;;1.67;;
65835;SDS011;52595;51.608;7.216;2022-12-29T14:00:43;3.42;;;1.02;;
65835;SDS011;52595;51.608;7.216;2022-12-29T14:06:20;6.18;;;1.77;;
65835;SDS011;52595;51.608;7.216;2022-12-29T14:08:49;4.32;;;1.10;;
65835;SDS011;52595;51.608;7.216;2022-12-29T14:11:17;4.28;;;1.08;;
65835;SDS011;52595;51.608;7.216;2022-12-29T14:13:47;6.15;;;1.30;;
65835;SDS011;52595;51.608;7.216;2022-12-29T14:16:27;4.90;;;1.30;;
65835;SDS011;52595;51.608;7.216;2022-12-29T14:18:54;2.97;;;1.08;;
65835;SDS011;52595;51.608;7.216;2022-12-29T14:21:22;4.65;;;1.20;;
65835;SDS011;52595;51.608;7.216;2022-12-29T14:23:54;5.38;;;1.40;;
65835;SDS011;52595;51.608;7.216;2022-12-29T14:26:45;6.00;;;1.17;;
65835;SDS011;52595;51.608;7.216;2022-12-29T14:31:48;4.68;;;1.17;;
65835;SDS011;52595;51.608;7.216;2022-12-29T14:36:59;7.07;;;1.25;;
65835;SDS011;52595;51.608;7.216;2022-12-29T14:45:00;5.43;;;1.42;;
65835;SDS011;52595;51.608;7.216;2022-12-29T14:52:33;5.18;;;1.20;;
65835;SDS011;52595;51.608;7.216;2022-12-29T14:58:18;3.25;;;1.23;;
65835;SDS011;52595;51.608;7.216;2022-12-29T15:00:46;8.27;;;1.73;;
65835;SDS011;52595;51.608;7.216;2022-12-29T15:08:20;6.32;;;1.52;;
65835;SDS011;52595;51.608;7.216;2022-12-29T15:13:25;6.30;;;1.60;;
65835;SDS011;52595;51.608;7.216;2022-12-29T15:16:04;8.60;;;1.65;;
65835;SDS011;52595;51.608;7.216;2022-12-29T15:18:45;4.97;;;1.42;;
65835;SDS011;52595;51.608;7.216;2022-12-29T15:21:11;3.35;;;1.55;;
65835;SDS011;52595;51.608;7.216;2022-12-29T15:23:39;3.47;;;1.20;;
65835;SDS011;52595;51.608;7.216;2022-12-29T15:26:08;3.63;;;1.40;;
65835;SDS011;52595;51.608;7.216;2022-12-29T15:28:42;3.65;;;1.45;;
65835;SDS011;52595;51.608;7.216;2022-12-29T15:33:50;8.85;;;1.75;;
65835;SDS011;52595;51.608;7.216;2022-12-29T15:36:21;3.60;;;0.93;;
65835;SDS011;52595;51.608;7.216;2022-12-29T15:38:47;3.67;;;1.33;;
65835;SDS011;52595;51.608;7.216;2022-12-29T15:43:53;6.60;;;1.50;;
65835;SDS011;52595;51.608;7.216;2022-12-29T15:46:30;7.25;;;1.60;;
65835;SDS011;52595;51.608;7.216;2022-12-29T15:48:56;3.55;;;1.13;;
65835;SDS011;52595;51.608;7.216;2022-12-29T15:51:28;5.22;;;1.15;;
65835;SDS011;52595;51.608;7.216;2022-12-29T15:53:55;6.80;;;1.38;;
65835;SDS011;52595;51.608;7.216;2022-12-29T15:56:22;4.50;;;1.23;;
65835;SDS011;52595;51.608;7.216;2022-12-29T15:58:49;5.55;;;1.10;;
65835;SDS011;52595;51.608;7.216;2022-12-29T16:01:19;9.38;;;1.38;;
65835;SDS011;52595;51.608;7.216;2022-12-29T16:03:51;2.30;;;1.30;;
65835;SDS011;52595;51.608;7.216;2022-12-29T16:11:35;5.55;;;1.42;;
65835;SDS011;52595;51.608;7.216;2022-12-29T16:14:05;6.13;;;1.25;;
65835;SDS011;52595;51.608;7.216;2022-12-29T16:16:38;4.50;;;1.95;;
65835;SDS011;52595;51.608;7.216;2022-12-29T16:19:13;7.15;;;1.98;;
65835;SDS011;52595;51.608;7.216;2022-12-29T16:21:44;6.70;;;1.83;;
65835;SDS011;52595;51.608;7.216;2022-12-29T16:24:12;5.70;;;1.40;;
65835;SDS011;52595;51.608;7.216;2022-12-29T16:26:58;5.88;;;1.70;;
65835;SDS011;52595;51.608;7.216;2022-12-29T16:29:31;5.30;;;1.42;;
65835;SDS011;52595;51.608;7.216;2022-12-29T16:31:58;4.15;;;1.30;;
65835;SDS011;52595;51.608;7.216;2022-12-29T16:35:03;8.30;;;1.35;;
65835;SDS011;52595;51.608;7.216;2022-12-29T16:37:35;5.85;;;1.27;;
65835;SDS011;52595;51.608;7.216;2022-12-29T16:50:48;5.53;;;1.23;;
65835;SDS011;52595;51.608;7.216;2022-12-29T16:53:23;3.55;;;1.20;;
65835;SDS011;52595;51.608;7.216;2022-12-29T16:55:54;6.60;;;1.50;;
65835;SDS011;52595;51.608;7.216;2022-12-29T16:58:22;6.57;;;1.60;;
65835;SDS011;52595;51.608;7.216;2022-12-29T17:00:52;4.57;;;1.60;;
65835;SDS011;52595;51.608;7.216;2022-12-29T17:03:21;9.77;;;1.77;;
65835;SDS011;52595;51.608;7.216;2022-12-29T17:05:48;5.95;;;2.00;;
65835;SDS011;52595;51.608;7.216;2022-12-29T17:08:17;5.57;;;2.00;;
65835;SDS011;52595;51.608;7.216;2022-12-29T17:10:48;4.63;;;1.70;;
65835;SDS011;52595;51.608;7.216;2022-12-29T17:13:34;8.00;;;1.90;;
65835;SDS011;52595;51.608;7.216;2022-12-29T17:16:00;9.70;;;2.85;;
65835;SDS011;52595;51.608;7.216;2022-12-29T17:18:25;10.07;;;2.40;;
65835;SDS011;52595;51.608;7.216;2022-12-29T17:20:51;4.80;;;1.80;;
65835;SDS011;52595;51.608;7.216;2022-12-29T17:23:16;4.85;;;1.83;;
65835;SDS011;52595;51.608;7.216;2022-12-29T17:25:41;5.68;;;1.13;;
65835;SDS011;52595;51.608;7.216;2022-12-29T17:28:18;4.80;;;1.23;;
65835;SDS011;52595;51.608;7.216;2022-12-29T17:30:46;1.98;;;1.10;;
65835;SDS011;52595;51.608;7.216;2022-12-29T17:33:13;2.10;;;1.17;;